Time;durP1;ratioP1;P1;durP2;ratioP2;P2;SDS_P1;SDS_P2;PMS_P1;PMS_P2;Temp;Humidity;BMP_temperature;BMP_pressure;BME280_temperature;BME280_humidity;BME280_pressure;Samples;Min_cycle;Max_cycle;Signal;HPM_P1;HPM_P2
2022/12/31 00:00:27;;;;;;;1.73;0.30;;;13.10;99.90;;;;;;5012116;28;20100;-73
2022/12/31 00:02:53;;;;;;;1.33;0.22;;;13.10;99.90;;;;;;5010108;28;20018;-73
2022/12/31 00:05:18;;;;;;;1.27;0.35;;;13.10;99.90;;;;;;5001583;28;20058;-72
2022/12/31 00:07:44;;;;;;;1.80;0.55;;;13.20;99.90;;;;;;5010914;28;20027;-73
2022/12/31 00:10:09;;;;;;;1.45;0.70;;;13.20;99.90;;;;;;5011929;28;20041;-73
2022/12/31 00:12:35;;;;;;;2.42;0.80;;;13.20;99.90;;;;;;5012456;28;20382;-73
2022/12/31 00:15:01;;;;;;;2.42;0.80;;;13.20;99.90;;;;;;5005652;28;20397;-72
2022/12/31 00:17:26;;;;;;;4.10;1.17;;;13.20;99.90;;;;;;5002923;28;20035;-72
2022/12/31 00:19:52;;;;;;;2.20;0.90;;;13.20;99.90;;;;;;5009331;28;20028;-73
2022/12/31 00:22:17;;;;;;;2.50;0.80;;;13.20;99.90;;;;;;5010900;28;20049;-73
2022/12/31 00:24:43;;;;;;;2.33;0.80;;;13.10;99.90;;;;;;5006833;28;20030;-73
2022/12/31 00:27:08;;;;;;;2.17;0.90;;;13.10;99.90;;;;;;5011743;28;20026;-72
2022/12/31 00:29:34;;;;;;;2.72;0.90;;;13.10;99.90;;;;;;5011341;28;20033;-73
2022/12/31 00:31:59;;;;;;;2.85;0.77;;;13.10;99.90;;;;;;5010428;28;20018;-72
2022/12/31 00:34:25;;;;;;;3.65;0.65;;;13.10;99.90;;;;;;5010809;28;20456;-73
2022/12/31 00:36:51;;;;;;;2.58;0.80;;;13.10;99.90;;;;;;5011216;28;20049;-73
2022/12/31 00:39:17;;;;;;;2.25;0.77;;;13.00;99.90;;;;;;5011003;28;20152;-72
2022/12/31 00:41:43;;;;;;;1.90;0.95;;;13.10;99.90;;;;;;4993361;28;20109;-73
2022/12/31 00:44:10;;;;;;;2.30;0.82;;;13.10;99.90;;;;;;5008317;28;20065;-73
2022/12/31 00:46:36;;;;;;;1.10;0.70;;;13.10;99.90;;;;;;5011029;28;20046;-73
2022/12/31 00:49:02;;;;;;;1.40;0.70;;;13.10;99.90;;;;;;5011440;28;20084;-72
2022/12/31 00:51:27;;;;;;;1.02;0.30;;;13.10;99.90;;;;;;5005393;28;20060;-72
2022/12/31 00:53:54;;;;;;;2.40;0.30;;;13.00;99.90;;;;;;5008876;28;20100;-72
2022/12/31 00:56:22;;;;;;;1.17;0.40;;;12.70;99.90;;;;;;5009067;28;20064;-71
2022/12/31 00:58:48;;;;;;;0.95;0.20;;;12.50;99.90;;;;;;5010930;28;20028;-71
2022/12/31 01:01:22;;;;;;;0.90;0.30;;;12.30;99.90;;;;;;5011877;28;20022;-72
2022/12/31 01:03:50;;;;;;;1.27;0.30;;;12.10;99.90;;;;;;5009977;28;20409;-72
2022/12/31 01:06:17;;;;;;;2.08;0.30;;;12.10;99.90;;;;;;5010422;28;20109;-72
2022/12/31 01:08:43;;;;;;;0.98;0.30;;;12.00;99.90;;;;;;5010462;28;20025;-72
2022/12/31 01:11:23;;;;;;;2.90;0.30;;;11.90;99.90;;;;;;5009513;28;20095;-72
2022/12/31 01:14:00;;;;;;;1.55;0.30;;;11.90;99.90;;;;;;5008641;28;20030;-71
2022/12/31 01:16:32;;;;;;;0.70;0.30;;;11.90;99.90;;;;;;5009864;28;20030;-72
2022/12/31 01:19:00;;;;;;;3.58;0.30;;;11.80;99.90;;;;;;5011182;28;20525;-72
2022/12/31 01:21:27;;;;;;;0.70;0.22;;;11.80;99.90;;;;;;5009434;28;20034;-73
2022/12/31 01:23:52;;;;;;;0.95;0.20;;;11.80;99.90;;;;;;5011661;28;20160;-72
2022/12/31 01:26:19;;;;;;;1.65;0.30;;;11.80;99.90;;;;;;5010951;28;20534;-72
2022/12/31 01:28:45;;;;;;;3.13;0.30;;;11.70;99.90;;;;;;5010318;28;20021;-72
2022/12/31 01:31:14;;;;;;;1.60;0.20;;;11.70;99.90;;;;;;5006890;28;20089;-72
2022/12/31 01:33:41;;;;;;;1.58;0.38;;;11.70;99.90;;;;;;5016848;28;20099;-72
2022/12/31 01:36:19;;;;;;;1.58;0.45;;;11.70;99.90;;;;;;5010740;28;20032;-72
2022/12/31 01:38:44;;;;;;;2.67;0.30;;;11.70;99.90;;;;;;5011409;28;20025;-72
2022/12/31 01:41:12;;;;;;;2.00;0.40;;;11.60;99.90;;;;;;5008332;28;20029;-72
2022/12/31 01:44:11;;;;;;;1.42;0.30;;;11.60;99.90;;;;;;5000293;28;20025;-72
2022/12/31 01:46:41;;;;;;;1.45;0.32;;;11.60;99.90;;;;;;5011212;28;20065;-72
2022/12/31 01:49:14;;;;;;;1.80;0.40;;;11.60;99.90;;;;;;5010748;28;20456;-72
2022/12/31 01:51:42;;;;;;;1.38;0.45;;;11.60;99.90;;;;;;5010608;28;20048;-71
2022/12/31 01:54:09;;;;;;;3.17;0.40;;;11.60;99.90;;;;;;5010646;28;20026;-72
2022/12/31 01:56:38;;;;;;;1.80;0.35;;;11.60;99.90;;;;;;5011004;28;20038;-73
2022/12/31 01:59:07;;;;;;;2.22;0.47;;;11.60;99.90;;;;;;5008818;28;20026;-73
2022/12/31 02:01:35;;;;;;;2.85;0.60;;;11.60;99.90;;;;;;5007880;28;20045;-73
2022/12/31 02:04:06;;;;;;;3.50;0.60;;;11.60;99.90;;;;;;5008838;28;20029;-73
2022/12/31 02:06:39;;;;;;;2.08;0.50;;;11.60;99.90;;;;;;5010333;28;20042;-73
2022/12/31 02:09:05;;;;;;;;;;;11.60;99.90;;;;;;5011166;28;20024;-73
2022/12/31 02:11:35;;;;;;;5.05;0.70;;;11.60;99.90;;;;;;5010641;28;19920;-73
2022/12/31 02:14:11;;;;;;;2.00;0.60;;;11.60;99.90;;;;;;5009271;28;20030;-73
2022/12/31 02:17:20;;;;;;;3.97;0.40;;;11.60;99.90;;;;;;5009002;28;20367;-73
2022/12/31 02:20:09;;;;;;;1.95;0.30;;;11.60;99.90;;;;;;5001938;28;20421;-73
2022/12/31 02:22:47;;;;;;;4.72;0.40;;;11.60;99.90;;;;;;4992902;28;20029;-73
2022/12/31 02:25:39;;;;;;;2.60;0.47;;;11.60;99.90;;;;;;5007121;28;20502;-72
2022/12/31 02:28:43;;;;;;;1.45;0.40;;;11.60;99.90;;;;;;5009477;28;20029;-73
2022/12/31 02:31:16;;;;;;;2.90;0.50;;;11.60;99.90;;;;;;5009362;28;20080;-73
2022/12/31 02:34:12;;;;;;;0.88;0.30;;;11.60;99.90;;;;;;4994663;28;20037;-73
2022/12/31 02:36:43;;;;;;;4.22;0.50;;;11.60;99.90;;;;;;5003913;28;20030;-72
2022/12/31 02:39:09;;;;;;;2.20;0.60;;;11.50;99.90;;;;;;5012971;28;20474;-73
2022/12/31 02:41:50;;;;;;;2.55;0.40;;;11.50;99.90;;;;;;5013857;28;20474;-73
2022/12/31 02:44:33;;;;;;;1.60;0.50;;;11.50;99.90;;;;;;5010071;28;20037;-72
2022/12/31 02:47:08;;;;;;;2.83;0.70;;;11.60;99.90;;;;;;5012795;28;20116;-73
2022/12/31 02:49:45;;;;;;;4.70;0.70;;;11.50;99.90;;;;;;5012961;28;20029;-73
2022/12/31 02:52:24;;;;;;;5.80;0.85;;;11.50;99.90;;;;;;5008759;28;20121;-73
2022/12/31 02:55:16;;;;;;;3.17;0.80;;;11.60;99.90;;;;;;5011182;28;20084;-73
2022/12/31 02:57:49;;;;;;;4.28;1.20;;;11.50;99.90;;;;;;5014205;28;20125;-73
2022/12/31 03:03:02;;;;;;;4.43;2.45;;;11.50;99.90;;;;;;5001985;28;20043;-73
2022/12/31 03:05:32;;;;;;;6.85;3.20;;;11.50;99.90;;;;;;5013075;28;20108;-73
2022/12/31 03:07:58;;;;;;;5.45;3.53;;;11.60;99.90;;;;;;5007482;28;20069;-73
2022/12/31 03:10:24;;;;;;;5.70;3.92;;;11.50;99.90;;;;;;5011237;28;20181;-73
2022/12/31 03:12:50;;;;;;;6.07;4.25;;;11.60;99.90;;;;;;5012605;28;20079;-73
2022/12/31 03:15:24;;;;;;;8.10;4.93;;;11.60;99.90;;;;;;5008468;28;20044;-75
2022/12/31 03:18:06;;;;;;;14.45;5.85;;;11.60;99.90;;;;;;4995934;28;20139;-71
2022/12/31 03:23:24;;;;;;;12.05;7.13;;;11.60;99.90;;;;;;5006078;28;20556;-73
2022/12/31 03:25:49;;;;;;;9.85;6.88;;;11.60;99.90;;;;;;5001427;28;20084;-73
2022/12/31 03:28:18;;;;;;;8.98;6.82;;;11.60;99.90;;;;;;5008265;28;20026;-73
2022/12/31 03:30:47;;;;;;;12.60;7.38;;;11.60;99.90;;;;;;5015411;28;20034;-73
2022/12/31 03:33:13;;;;;;;10.45;7.35;;;11.60;99.90;;;;;;5012101;28;20483;-73
2022/12/31 03:35:42;;;;;;;9.82;6.30;;;11.60;99.90;;;;;;5013109;28;20036;-73
2022/12/31 03:38:08;;;;;;;11.20;6.07;;;11.60;99.90;;;;;;5011064;28;20073;-71
2022/12/31 03:40:39;;;;;;;9.95;5.90;;;11.70;99.90;;;;;;5012735;28;20037;-73
2022/12/31 03:43:04;;;;;;;8.85;5.82;;;11.70;99.90;;;;;;5010794;28;20040;-73
2022/12/31 03:45:30;;;;;;;10.70;5.18;;;11.70;99.90;;;;;;4993485;28;20046;-73
2022/12/31 03:47:55;;;;;;;8.30;5.72;;;11.70;99.90;;;;;;5004145;28;20030;-73
2022/12/31 03:50:21;;;;;;;7.07;4.25;;;11.70;99.90;;;;;;5013016;28;20069;-73
2022/12/31 03:52:47;;;;;;;7.82;4.88;;;11.70;99.90;;;;;;5013422;28;20057;-73
2022/12/31 03:55:13;;;;;;;6.13;4.57;;;11.70;99.90;;;;;;5011629;28;20449;-73
2022/12/31 03:57:39;;;;;;;6.30;4.60;;;11.70;99.90;;;;;;5006531;28;20022;-73
2022/12/31 04:00:08;;;;;;;7.50;4.25;;;11.70;99.90;;;;;;5002737;28;20390;-73
2022/12/31 04:02:33;;;;;;;6.85;4.47;;;11.70;99.90;;;;;;4999131;28;20041;-74
2022/12/31 04:04:59;;;;;;;9.10;5.07;;;11.70;99.90;;;;;;5013150;28;20030;-73
2022/12/31 04:07:24;;;;;;;10.13;4.68;;;11.70;99.90;;;;;;5001421;28;20467;-73
2022/12/31 04:09:50;;;;;;;8.30;4.75;;;11.80;99.90;;;;;;5010806;28;20026;-73
2022/12/31 04:12:16;;;;;;;6.15;4.47;;;11.80;99.90;;;;;;5010451;28;20038;-73
2022/12/31 04:14:41;;;;;;;7.13;4.65;;;11.70;99.90;;;;;;5011357;28;20022;-73
2022/12/31 04:17:07;;;;;;;6.95;4.95;;;11.80;99.90;;;;;;5003590;28;20026;-73
2022/12/31 04:19:32;;;;;;;7.43;4.78;;;11.80;99.90;;;;;;5010231;28;20040;-73
2022/12/31 04:21:58;;;;;;;7.38;4.55;;;11.80;99.90;;;;;;5004104;28;20037;-73
2022/12/31 04:24:24;;;;;;;6.07;4.78;;;11.80;99.90;;;;;;4998156;28;20034;-74
2022/12/31 04:26:49;;;;;;;6.63;5.18;;;11.80;99.90;;;;;;5001228;28;20052;-73
2022/12/31 04:29:15;;;;;;;7.63;4.78;;;11.80;99.90;;;;;;5012209;28;20049;-73
2022/12/31 04:31:41;;;;;;;6.50;3.92;;;11.80;99.90;;;;;;5011523;28;20030;-74
2022/12/31 04:34:06;;;;;;;6.20;3.65;;;11.80;99.90;;;;;;5012141;28;20034;-74
2022/12/31 04:36:32;;;;;;;3.40;2.42;;;11.80;99.90;;;;;;5005358;28;20026;-73
2022/12/31 04:38:57;;;;;;;3.55;1.77;;;11.80;99.90;;;;;;5004385;28;20494;-73
2022/12/31 04:41:25;;;;;;;2.70;1.45;;;11.80;99.90;;;;;;5007670;28;20034;-73
2022/12/31 04:43:54;;;;;;;3.67;2.17;;;11.70;99.90;;;;;;5011019;28;20054;-73
2022/12/31 04:46:26;;;;;;;3.25;2.35;;;11.80;99.90;;;;;;5012317;28;20052;-73
2022/12/31 04:48:51;;;;;;;3.53;2.08;;;11.70;99.90;;;;;;5011499;28;20025;-73
2022/12/31 04:51:17;;;;;;;4.72;2.30;;;11.70;99.90;;;;;;5012657;28;20421;-73
2022/12/31 04:53:43;;;;;;;3.17;2.53;;;11.70;99.90;;;;;;5011469;28;20036;-73
2022/12/31 04:56:09;;;;;;;2.65;1.70;;;11.70;99.90;;;;;;5010779;28;20101;-73
2022/12/31 04:58:36;;;;;;;2.60;1.48;;;11.70;99.90;;;;;;4997969;28;20495;-73
2022/12/31 05:01:02;;;;;;;2.20;1.40;;;11.70;99.90;;;;;;4983985;28;20029;-74
2022/12/31 05:03:28;;;;;;;2.88;1.10;;;11.80;99.90;;;;;;5007648;28;20022;-73
2022/12/31 05:05:58;;;;;;;3.35;0.85;;;11.70;99.90;;;;;;5006056;28;20057;-73
2022/12/31 05:08:23;;;;;;;1.10;0.50;;;11.80;99.90;;;;;;5011702;28;20034;-73
2022/12/31 05:10:49;;;;;;;1.08;0.50;;;11.80;99.90;;;;;;5010891;28;20050;-73
2022/12/31 05:13:15;;;;;;;1.40;0.50;;;11.80;99.90;;;;;;5011166;28;20033;-72
2022/12/31 05:15:41;;;;;;;1.23;0.60;;;11.80;99.90;;;;;;5005655;28;20022;-73
2022/12/31 05:18:07;;;;;;;1.02;0.50;;;11.90;99.90;;;;;;5001526;28;20037;-73
2022/12/31 05:20:33;;;;;;;2.22;0.50;;;11.90;99.90;;;;;;5011475;28;20033;-74
2022/12/31 05:22:59;;;;;;;0.88;0.40;;;11.90;99.90;;;;;;5012738;28;20080;-74
2022/12/31 05:25:24;;;;;;;1.30;0.40;;;11.90;99.90;;;;;;5012699;28;20030;-73
2022/12/31 05:27:50;;;;;;;0.60;0.30;;;12.00;99.90;;;;;;5011242;28;20030;-73
2022/12/31 05:30:17;;;;;;;0.50;0.20;;;12.00;99.90;;;;;;4994225;28;20041;-73
2022/12/31 05:32:43;;;;;;;0.68;0.30;;;12.00;99.90;;;;;;5013170;28;20403;-73
2022/12/31 05:35:09;;;;;;;0.50;0.20;;;12.00;99.90;;;;;;5012521;28;20029;-73
2022/12/31 05:37:35;;;;;;;0.40;0.20;;;12.00;99.90;;;;;;5010969;28;20022;-75
2022/12/31 05:40:00;;;;;;;0.63;0.30;;;12.00;99.90;;;;;;5006165;28;20097;-73
2022/12/31 05:42:27;;;;;;;0.50;0.20;;;12.00;99.90;;;;;;4997264;28;20060;-73
2022/12/31 05:44:53;;;;;;;0.45;0.20;;;12.00;99.90;;;;;;5011245;28;20042;-73
2022/12/31 05:47:18;;;;;;;1.38;0.20;;;12.10;99.90;;;;;;5011323;28;20040;-73
2022/12/31 05:49:44;;;;;;;0.60;0.20;;;12.10;99.90;;;;;;4999456;28;20046;-73
2022/12/31 05:52:09;;;;;;;0.43;0.20;;;12.10;99.90;;;;;;5011077;28;20033;-73
2022/12/31 05:54:35;;;;;;;0.30;0.20;;;12.00;99.90;;;;;;5008726;28;20022;-73
2022/12/31 05:57:02;;;;;;;1.00;0.30;;;12.10;99.90;;;;;;5011652;28;20026;-73
2022/12/31 05:59:27;;;;;;;0.80;0.30;;;12.10;99.90;;;;;;4991144;28;20029;-73
2022/12/31 06:01:53;;;;;;;1.40;0.50;;;12.10;99.90;;;;;;5004356;28;20082;-73
2022/12/31 06:04:19;;;;;;;1.42;0.57;;;12.10;99.90;;;;;;5010081;28;20394;-73
2022/12/31 06:06:44;;;;;;;1.65;0.50;;;12.10;99.90;;;;;;5012155;28;20029;-73
2022/12/31 06:09:10;;;;;;;0.80;0.38;;;12.10;99.90;;;;;;5015705;28;20035;-73
2022/12/31 06:11:36;;;;;;;0.77;0.40;;;12.10;99.90;;;;;;5014150;28;20058;-73
2022/12/31 06:14:01;;;;;;;2.35;0.40;;;12.20;99.90;;;;;;5015018;28;20022;-73
2022/12/31 06:16:27;;;;;;;1.25;0.47;;;12.30;99.90;;;;;;5009827;28;20112;-74
2022/12/31 06:18:53;;;;;;;0.65;0.30;;;12.40;99.90;;;;;;5014137;28;20017;-73
2022/12/31 06:21:20;;;;;;;0.60;0.30;;;12.50;99.90;;;;;;5015435;28;20037;-73
2022/12/31 06:23:46;;;;;;;0.98;0.38;;;12.50;99.90;;;;;;5015585;28;20033;-73
2022/12/31 06:26:12;;;;;;;1.42;0.40;;;12.60;99.90;;;;;;5018192;28;20490;-73
2022/12/31 06:28:38;;;;;;;1.23;0.60;;;12.60;99.90;;;;;;5015713;28;20034;-73
2022/12/31 06:31:06;;;;;;;4.88;1.00;;;12.70;99.90;;;;;;5014235;28;20129;-73
2022/12/31 06:33:32;;;;;;;1.70;0.80;;;12.70;99.90;;;;;;5014680;28;20072;-73
2022/12/31 06:35:59;;;;;;;1.75;0.93;;;12.70;99.90;;;;;;5014551;28;20165;-73
2022/12/31 06:38:28;;;;;;;2.08;0.80;;;12.80;99.90;;;;;;5017727;28;20537;-73
2022/12/31 06:40:54;;;;;;;2.58;0.82;;;12.80;99.90;;;;;;5016940;28;20077;-73
2022/12/31 06:43:20;;;;;;;1.90;0.88;;;12.90;99.90;;;;;;5014425;28;20101;-71
2022/12/31 06:45:46;;;;;;;1.60;0.60;;;12.90;99.90;;;;;;5015652;28;20141;-71
2022/12/31 06:48:12;;;;;;;2.70;0.57;;;13.00;99.90;;;;;;5016109;28;20445;-71
2022/12/31 06:50:38;;;;;;;2.05;0.60;;;13.00;99.90;;;;;;5014711;28;20059;-71
2022/12/31 06:53:03;;;;;;;2.08;0.50;;;13.10;99.90;;;;;;5015458;28;20482;-73
2022/12/31 06:55:29;;;;;;;2.47;1.27;;;13.10;99.90;;;;;;5011999;28;20038;-73
2022/12/31 06:57:55;;;;;;;3.78;2.15;;;13.20;99.90;;;;;;5014972;28;20548;-71
2022/12/31 07:00:21;;;;;;;2.10;1.15;;;13.20;99.90;;;;;;5013153;28;20025;-72
2022/12/31 07:03:12;;;;;;;2.38;0.73;;;13.30;99.90;;;;;;5008584;28;20418;-71
2022/12/31 07:06:00;;;;;;;4.05;2.78;;;13.30;99.90;;;;;;5000667;28;20033;-73
2022/12/31 07:08:55;;;;;;;5.07;1.05;;;13.40;99.90;;;;;;5013803;28;20018;-74
2022/12/31 07:11:33;;;;;;;3.80;0.80;;;13.40;99.90;;;;;;4991716;28;20448;-72
2022/12/31 07:14:22;;;;;;;2.13;0.60;;;13.50;99.90;;;;;;5014676;28;20474;-72
2022/12/31 07:17:22;;;;;;;1.60;0.55;;;13.50;99.90;;;;;;5016125;28;20036;-72
2022/12/31 07:19:56;;;;;;;1.50;0.40;;;13.60;99.90;;;;;;4977856;28;20564;-72
2022/12/31 07:22:22;;;;;;;1.65;0.40;;;13.70;99.90;;;;;;5013704;28;20548;-72
2022/12/31 07:24:48;;;;;;;3.30;0.40;;;13.70;99.90;;;;;;5001871;28;20037;-72
2022/12/31 07:27:19;;;;;;;1.23;0.30;;;13.80;99.90;;;;;;5014658;28;20026;-72
2022/12/31 07:30:18;;;;;;;3.38;0.30;;;13.80;99.90;;;;;;5015132;28;20440;-72
2022/12/31 07:32:55;;;;;;;3.30;0.20;;;13.90;99.90;;;;;;5001277;28;20062;-72
2022/12/31 07:35:51;;;;;;;2.10;0.25;;;14.00;99.90;;;;;;5006732;28;20401;-72
2022/12/31 07:38:27;;;;;;;0.95;0.20;;;14.10;99.90;;;;;;5013909;28;20108;-72
2022/12/31 07:41:07;;;;;;;2.53;0.20;;;14.10;99.90;;;;;;4997629;28;20026;-72
2022/12/31 07:43:50;;;;;;;3.95;0.20;;;14.20;99.90;;;;;;5011483;28;20462;-71
2022/12/31 07:46:15;;;;;;;;;;;14.20;99.90;;;;;;5012045;28;20072;-72
2022/12/31 07:48:41;;;;;;;0.50;0.10;;;14.10;99.90;;;;;;5004265;28;20008;-74
2022/12/31 07:51:09;;;;;;;1.23;0.00;;;14.00;99.90;;;;;;5013148;28;20057;-72
2022/12/31 07:53:35;;;;;;;0.30;0.00;;;14.00;99.90;;;;;;5012046;28;20014;-72
2022/12/31 07:56:03;;;;;;;2.28;0.10;;;13.90;99.90;;;;;;5012478;28;20505;-71
2022/12/31 07:59:10;;;;;;;2.92;0.20;;;13.80;99.90;;;;;;5013761;28;20026;-72
2022/12/31 08:02:05;;;;;;;5.15;0.20;;;13.90;99.90;;;;;;5010588;28;20381;-72
2022/12/31 08:04:55;;;;;;;3.25;1.08;;;14.00;99.90;;;;;;5013106;28;20037;-72
2022/12/31 08:07:36;;;;;;;1.08;0.30;;;14.00;99.90;;;;;;5009757;28;20466;-71
2022/12/31 08:10:21;;;;;;;1.40;0.43;;;14.10;99.90;;;;;;5010695;28;20088;-72
2022/12/31 08:12:49;;;;;;;1.13;0.20;;;14.10;99.90;;;;;;5012039;28;20129;-72
2022/12/31 08:15:16;;;;;;;2.30;0.13;;;14.10;99.90;;;;;;4994978;28;20030;-72
2022/12/31 08:17:42;;;;;;;3.53;0.20;;;14.10;99.90;;;;;;5011014;28;20033;-71
2022/12/31 08:20:16;;;;;;;9.05;0.30;;;14.10;99.90;;;;;;5012284;28;20443;-73
2022/12/31 08:23:04;;;;;;;4.43;0.20;;;13.90;99.90;;;;;;5009396;28;20022;-73
2022/12/31 08:25:51;;;;;;;2.42;0.30;;;13.80;99.90;;;;;;5004450;28;20112;-72
2022/12/31 08:28:37;;;;;;;1.50;0.20;;;13.50;99.90;;;;;;5009622;28;20386;-74
2022/12/31 08:31:12;;;;;;;3.92;0.30;;;13.30;99.90;;;;;;5011128;28;20048;-74
2022/12/31 08:33:55;;;;;;;1.48;0.20;;;13.10;99.90;;;;;;5010675;28;20094;-73
2022/12/31 08:36:40;;;;;;;0.52;0.10;;;13.00;99.90;;;;;;5003322;28;20500;-73
2022/12/31 08:39:31;;;;;;;2.28;0.10;;;13.00;99.90;;;;;;4989611;28;20426;-73
2022/12/31 08:41:58;;;;;;;2.30;0.95;;;12.90;99.90;;;;;;5009219;28;20083;-72
2022/12/31 08:44:56;;;;;;;1.63;0.10;;;12.80;99.90;;;;;;4998905;28;20027;-74
2022/12/31 08:47:50;;;;;;;0.50;0.10;;;12.90;99.90;;;;;;5012582;28;20482;-73
2022/12/31 08:50:17;;;;;;;1.10;0.10;;;12.80;99.90;;;;;;5011245;28;20041;-74
2022/12/31 08:52:44;;;;;;;0.80;0.10;;;12.80;99.90;;;;;;5006852;28;20041;-73
2022/12/31 08:55:18;;;;;;;1.60;0.20;;;12.80;99.90;;;;;;5011029;28;20018;-73
2022/12/31 08:58:10;;;;;;;1.55;0.17;;;12.80;99.90;;;;;;5007107;28;20064;-73
2022/12/31 09:00:37;;;;;;;1.38;0.35;;;12.90;99.90;;;;;;5011211;28;20041;-74
2022/12/31 09:03:27;;;;;;;1.98;0.40;;;13.00;99.90;;;;;;5009019;28;20056;-74
2022/12/31 09:06:08;;;;;;;5.05;0.40;;;13.10;99.90;;;;;;5010109;28;20022;-73
2022/12/31 09:09:21;;;;;;;3.05;0.50;;;13.30;99.90;;;;;;5009856;28;20508;-73
2022/12/31 09:12:19;;;;;;;1.38;0.32;;;13.50;99.90;;;;;;4930949;29;20300;-73
2022/12/31 09:14:49;;;;;;;2.15;0.40;;;13.70;99.90;;;;;;4927350;29;20046;-73
2022/12/31 09:17:36;;;;;;;3.45;0.73;;;13.80;99.90;;;;;;4985014;28;20029;-74
2022/12/31 09:20:02;;;;;;;2.17;0.50;;;13.90;99.90;;;;;;5008815;28;20026;-74
2022/12/31 09:22:28;;;;;;;3.35;0.45;;;14.00;99.90;;;;;;5009921;28;20117;-74
2022/12/31 09:24:53;;;;;;;1.02;0.28;;;14.00;99.90;;;;;;5005519;28;20236;-74
2022/12/31 09:27:39;;;;;;;2.75;0.50;;;14.10;99.90;;;;;;5008425;28;20038;-74
2022/12/31 09:30:11;;;;;;;2.42;0.32;;;14.20;99.90;;;;;;5005381;28;20026;-74
2022/12/31 09:32:59;;;;;;;1.70;0.30;;;14.20;99.90;;;;;;4993232;28;20042;-73
2022/12/31 09:35:44;;;;;;;3.13;0.38;;;14.30;99.90;;;;;;4998285;28;20057;-72
2022/12/31 09:38:09;;;;;;;4.57;0.35;;;14.40;99.90;;;;;;4996908;28;20061;-72
2022/12/31 09:41:03;;;;;;;3.67;0.30;;;14.40;99.90;;;;;;5006053;28;20025;-75
2022/12/31 09:44:35;;;;;;;2.05;0.38;;;14.50;99.90;;;;;;5008972;28;20144;-72
2022/12/31 09:47:22;;;;;;;1.20;0.30;;;14.50;99.90;;;;;;4901933;29;20072;-72
2022/12/31 09:50:28;;;;;;;4.13;0.82;;;14.60;99.90;;;;;;5000609;28;20041;-73
2022/12/31 09:53:15;;;;;;;4.38;0.40;;;14.60;99.90;;;;;;5009731;28;20510;-73
2022/12/31 09:56:14;;;;;;;1.42;0.30;;;14.60;99.90;;;;;;5008395;28;20037;-73
2022/12/31 09:59:04;;;;;;;4.63;0.45;;;14.60;99.90;;;;;;5013558;28;20032;-73
2022/12/31 10:01:54;;;;;;;3.67;0.47;;;14.60;99.90;;;;;;5011046;28;20034;-73
2022/12/31 10:04:27;;;;;;;4.18;0.50;;;14.60;99.90;;;;;;5009516;28;20034;-73
2022/12/31 10:07:13;;;;;;;2.83;0.80;;;14.60;99.90;;;;;;5003194;28;20513;-73
2022/12/31 10:09:44;;;;;;;2.83;0.88;;;14.60;99.90;;;;;;5011548;28;20482;-73
2022/12/31 10:12:41;;;;;;;2.78;0.75;;;14.60;99.90;;;;;;5009195;28;20060;-73
2022/12/31 10:15:32;;;;;;;3.55;0.40;;;14.70;99.90;;;;;;5010364;28;20177;-73
2022/12/31 10:18:11;;;;;;;3.35;0.40;;;14.70;99.90;;;;;;5005289;28;20084;-73
2022/12/31 10:21:04;;;;;;;2.72;0.40;;;14.70;99.90;;;;;;5008447;28;20541;-73
2022/12/31 10:24:08;;;;;;;5.93;0.47;;;14.70;99.90;;;;;;5011355;28;20018;-73
2022/12/31 10:26:37;;;;;;;1.83;0.30;;;14.80;99.90;;;;;;4977260;28;20048;-73
2022/12/31 10:29:31;;;;;;;2.85;0.40;;;14.80;99.90;;;;;;5012345;28;20076;-73
2022/12/31 10:32:18;;;;;;;2.95;0.40;;;14.80;99.90;;;;;;5011861;28;20054;-73
2022/12/31 10:35:15;;;;;;;4.07;0.40;;;14.90;99.90;;;;;;5012069;28;20034;-73
2022/12/31 10:38:04;;;;;;;5.75;0.80;;;14.80;99.90;;;;;;4975019;28;20042;-74
2022/12/31 10:40:46;;;;;;;2.70;0.50;;;14.90;99.90;;;;;;5013223;28;20551;-73
2022/12/31 10:43:30;;;;;;;4.95;0.70;;;14.90;99.90;;;;;;4995614;28;20138;-74
2022/12/31 10:46:08;;;;;;;4.07;0.40;;;14.90;99.90;;;;;;5013010;28;20457;-73
2022/12/31 10:49:08;;;;;;;3.60;0.50;;;14.90;99.90;;;;;;5011899;28;20030;-73
2022/12/31 10:52:20;;;;;;;6.45;0.60;;;14.90;99.90;;;;;;5012354;28;20034;-73
2022/12/31 10:55:05;;;;;;;2.55;0.47;;;14.90;99.90;;;;;;5013225;28;20172;-74
2022/12/31 10:58:07;;;;;;;2.08;0.45;;;14.90;99.90;;;;;;5010789;28;20033;-74
2022/12/31 11:01:10;;;;;;;3.83;0.32;;;14.90;99.90;;;;;;5012865;28;20087;-74
2022/12/31 11:04:00;;;;;;;4.65;0.50;;;14.90;99.90;;;;;;5012251;28;20018;-74
2022/12/31 11:06:28;;;;;;;3.13;0.40;;;15.00;99.90;;;;;;5012177;28;20088;-74
2022/12/31 11:09:32;;;;;;;3.88;1.10;;;15.00;99.90;;;;;;5013190;28;20081;-74
2022/12/31 11:12:16;;;;;;;3.42;0.30;;;15.00;99.90;;;;;;5008657;28;20048;-74
2022/12/31 11:15:12;;;;;;;3.20;0.40;;;15.10;99.90;;;;;;4997402;28;20062;-74
2022/12/31 11:18:01;;;;;;;3.58;0.40;;;15.10;99.90;;;;;;5004547;28;20030;-75
2022/12/31 11:20:54;;;;;;;2.47;0.43;;;15.10;99.90;;;;;;5011879;28;20044;-74
2022/12/31 11:23:49;;;;;;;5.90;0.50;;;15.10;99.90;;;;;;5013498;28;20026;-75
2022/12/31 11:26:21;;;;;;;3.70;0.40;;;15.20;99.90;;;;;;4998573;28;20052;-74
2022/12/31 11:29:08;;;;;;;4.32;0.43;;;15.20;99.90;;;;;;5011969;28;20096;-76
2022/12/31 11:31:58;;;;;;;4.82;0.55;;;15.20;99.90;;;;;;5012753;28;20049;-74
2022/12/31 11:34:55;;;;;;;4.35;0.45;;;15.30;99.90;;;;;;5010486;28;20026;-75
2022/12/31 11:37:30;;;;;;;7.72;0.50;;;15.40;99.90;;;;;;4997122;28;20360;-74
2022/12/31 11:40:14;;;;;;;3.35;0.50;;;15.40;99.90;;;;;;5010839;28;20022;-74
2022/12/31 11:42:54;;;;;;;6.10;0.43;;;15.50;99.90;;;;;;5015654;28;20025;-73
2022/12/31 11:45:22;;;;;;;3.83;0.40;;;15.60;99.90;;;;;;5008619;28;20026;-73
2022/12/31 11:48:23;;;;;;;4.20;0.30;;;15.60;99.90;;;;;;5012723;28;20462;-76
2022/12/31 11:51:18;;;;;;;3.88;0.40;;;15.70;99.90;;;;;;5009391;28;20099;-73
2022/12/31 11:53:49;;;;;;;4.60;0.50;;;15.80;99.90;;;;;;5012348;28;20029;-74
2022/12/31 11:56:21;;;;;;;5.50;0.50;;;15.90;99.90;;;;;;5011164;28;20084;-74
2022/12/31 11:58:57;;;;;;;3.20;0.40;;;15.90;99.90;;;;;;5012528;28;20033;-73
2022/12/31 12:01:45;;;;;;;4.32;0.40;;;15.90;99.90;;;;;;5012376;23;20083;-74
2022/12/31 12:04:11;;;;;;;3.92;0.60;;;15.90;99.90;;;;;;5005902;28;20354;-74
2022/12/31 12:06:39;;;;;;;5.35;0.70;;;16.00;99.90;;;;;;5006889;28;20021;-74
2022/12/31 12:09:15;;;;;;;2.03;0.32;;;15.90;99.90;;;;;;5019587;23;20049;-74
2022/12/31 12:11:41;;;;;;;4.22;0.40;;;16.00;99.90;;;;;;5043267;28;20033;-74
2022/12/31 12:14:32;;;;;;;3.33;0.70;;;15.90;99.90;;;;;;5018945;28;20018;-74
2022/12/31 12:16:58;;;;;;;3.38;0.45;;;15.80;99.90;;;;;;5026061;28;20477;-75
2022/12/31 12:19:28;;;;;;;3.13;0.57;;;15.60;99.90;;;;;;5022921;28;20388;-75
2022/12/31 12:21:54;;;;;;;5.32;0.60;;;15.60;99.90;;;;;;5023080;28;20029;-73
2022/12/31 12:24:26;;;;;;;3.90;0.50;;;15.50;99.90;;;;;;5032355;28;20495;-74
2022/12/31 12:26:52;;;;;;;3.65;1.05;;;15.40;99.90;;;;;;5022628;28;20083;-74
2022/12/31 12:29:27;;;;;;;4.20;0.68;;;15.30;99.90;;;;;;5019960;28;20037;-75
2022/12/31 12:32:01;;;;;;;5.65;0.40;;;15.30;99.90;;;;;;5041786;28;20032;-74
2022/12/31 12:34:36;;;;;;;5.82;0.50;;;15.30;99.90;;;;;;5043541;28;20083;-74
2022/12/31 12:37:03;;;;;;;5.57;0.60;;;15.30;99.90;;;;;;5041764;28;20031;-74
2022/12/31 12:39:31;;;;;;;6.03;0.68;;;15.20;99.90;;;;;;5044013;28;20025;-74
2022/12/31 12:42:04;;;;;;;3.17;0.60;;;15.20;99.90;;;;;;5045611;28;20079;-74
2022/12/31 12:44:30;;;;;;;4.95;0.40;;;15.20;99.90;;;;;;5049208;28;20048;-74
2022/12/31 12:46:57;;;;;;;3.83;0.68;;;15.20;99.90;;;;;;5065222;28;20488;-74
2022/12/31 12:49:26;;;;;;;3.38;0.30;;;15.20;99.90;;;;;;5042409;28;20025;-74
2022/12/31 12:52:22;;;;;;;3.22;0.80;;;15.20;99.90;;;;;;5048687;28;20029;-74
2022/12/31 12:55:03;;;;;;;3.72;0.57;;;15.20;99.90;;;;;;5050564;28;20036;-74
2022/12/31 12:57:44;;;;;;;4.55;0.45;;;15.20;99.90;;;;;;5050766;28;20033;-74
2022/12/31 13:00:59;;;;;;;4.60;1.25;;;15.20;99.90;;;;;;5050066;28;20075;-74
2022/12/31 13:03:42;;;;;;;4.30;0.75;;;15.20;99.90;;;;;;5015047;28;20045;-74
2022/12/31 13:06:32;;;;;;;4.40;0.50;;;15.20;99.90;;;;;;5033480;28;20025;-74
2022/12/31 13:09:39;;;;;;;5.47;0.75;;;15.20;99.90;;;;;;5028221;28;20054;-73
2022/12/31 13:12:38;;;;;;;2.80;0.30;;;15.30;99.90;;;;;;5029772;28;20103;-74
2022/12/31 13:15:20;;;;;;;2.15;0.40;;;15.30;99.90;;;;;;5027501;28;20068;-74
2022/12/31 13:17:57;;;;;;;5.72;0.60;;;15.40;99.90;;;;;;5010711;28;20508;-74
2022/12/31 13:20:44;;;;;;;3.55;0.65;;;15.40;99.90;;;;;;5030700;28;20389;-74
2022/12/31 13:23:33;;;;;;;5.40;0.40;;;15.50;99.90;;;;;;5029399;28;20031;-74
2022/12/31 13:26:21;;;;;;;4.40;0.50;;;15.50;99.90;;;;;;5013084;28;20435;-74
2022/12/31 13:28:49;;;;;;;4.20;0.40;;;15.50;99.90;;;;;;5043755;28;20066;-74
2022/12/31 13:31:20;;;;;;;3.30;0.57;;;15.50;99.90;;;;;;5034521;28;20048;-74
2022/12/31 13:33:54;;;;;;;3.40;0.50;;;15.50;99.90;;;;;;5015476;28;20070;-74